createdAt,value
2019-02-18T00:01:22.160Z,15.97
2019-02-18T00:03:50.665Z,16.80
2019-02-18T00:06:19.979Z,17.10
2019-02-18T00:08:48.493Z,18.67
2019-02-18T00:11:17.810Z,19.17
2019-02-18T00:13:47.110Z,18.67
2019-02-18T00:16:16.443Z,17.07
2019-02-18T00:18:45.845Z,16.93
2019-02-18T00:21:14.359Z,15.30
2019-02-18T00:23:42.782Z,14.37
2019-02-18T00:26:12.097Z,13.93
2019-02-18T00:28:41.418Z,14.43
2019-02-18T00:31:10.761Z,13.30
2019-02-18T00:33:39.337Z,13.80
2019-02-18T00:36:08.656Z,13.67
2019-02-18T00:38:37.959Z,12.27
2019-02-18T00:41:06.589Z,11.40
2019-02-18T00:43:35.090Z,11.50
2019-02-18T00:46:04.425Z,11.97
2019-02-18T00:48:33.746Z,10.70
2019-02-18T00:51:03.182Z,12.07
2019-02-18T00:53:32.507Z,10.97
2019-02-18T00:56:01.815Z,12.13
2019-02-18T00:58:31.114Z,11.97
2019-02-18T01:01:00.506Z,11.63
2019-02-18T01:03:29.902Z,12.47
2019-02-18T01:05:58.433Z,11.43
2019-02-18T01:08:27.161Z,11.70
2019-02-18T01:10:55.665Z,12.67
2019-02-18T01:13:25.012Z,11.23
2019-02-18T01:15:53.494Z,11.23
2019-02-18T01:18:22.797Z,11.40
2019-02-18T01:20:52.128Z,11.13
2019-02-18T01:23:21.561Z,11.23
2019-02-18T01:25:50.887Z,10.97
2019-02-18T01:28:20.223Z,10.87
2019-02-18T01:30:48.746Z,11.23
2019-02-18T01:33:17.366Z,11.20
2019-02-18T01:35:46.671Z,11.03
2019-02-18T01:38:16.014Z,10.90
2019-02-18T01:40:45.366Z,10.93
2019-02-18T01:43:14.684Z,9.73
2019-02-18T01:45:44.001Z,9.73
2019-02-18T01:48:13.309Z,10.37
2019-02-18T01:50:42.651Z,9.30
2019-02-18T01:53:11.068Z,9.97
2019-02-18T01:55:39.671Z,10.13
2019-02-18T01:58:08.986Z,9.80
2019-02-18T02:03:41.021Z,9.60
2019-02-18T02:06:10.395Z,9.63
2019-02-18T02:08:39.706Z,9.63
2019-02-18T02:11:09.016Z,9.07
2019-02-18T02:13:38.336Z,9.73
2019-02-18T02:16:09.724Z,10.13
2019-02-18T02:18:38.299Z,9.57
2019-02-18T02:21:06.803Z,10.37
2019-02-18T02:23:36.211Z,10.27
2019-02-18T02:26:05.520Z,10.00
2019-02-18T02:28:34.090Z,9.77
2019-02-18T02:31:02.743Z,9.93
2019-02-18T02:33:32.130Z,10.03
2019-02-18T02:36:01.462Z,11.60
2019-02-18T02:38:30.778Z,12.70
2019-02-18T02:40:59.323Z,12.83
2019-02-18T02:43:28.708Z,12.03
2019-02-18T02:45:57.285Z,12.03
2019-02-18T02:48:25.802Z,11.53
2019-02-18T02:50:55.114Z,11.87
2019-02-18T02:53:23.602Z,12.57
2019-02-18T02:55:52.927Z,11.97
2019-02-18T02:58:21.545Z,12.93
2019-02-18T03:00:50.860Z,11.77
2019-02-18T03:03:20.170Z,11.43
2019-02-18T03:05:48.585Z,11.17
2019-02-18T03:08:20.562Z,11.07
2019-02-18T03:10:47.624Z,10.37
2019-02-18T03:13:16.163Z,10.53
2019-02-18T03:15:44.666Z,9.67
2019-02-18T03:18:13.997Z,9.93
2019-02-18T03:20:43.312Z,10.20
2019-02-18T03:23:12.621Z,9.40
2019-02-18T03:25:42.791Z,10.17
2019-02-18T03:28:50.103Z,10.00
2019-02-18T03:31:22.546Z,10.27
2019-02-18T03:34:29.847Z,10.60
2019-02-18T03:36:59.160Z,9.60
2019-02-18T03:39:27.689Z,10.50
2019-02-18T03:41:57.000Z,10.63
2019-02-18T03:44:25.572Z,10.37
2019-02-18T03:46:54.945Z,11.03
2019-02-18T03:49:24.260Z,12.50
2019-02-18T03:51:53.571Z,10.47
2019-02-18T03:57:25.059Z,10.50
2019-02-18T03:59:54.380Z,11.13
2019-02-18T04:02:23.805Z,11.93
2019-02-18T04:04:53.126Z,11.27
2019-02-18T04:07:22.444Z,11.13
2019-02-18T04:09:51.772Z,11.07
2019-02-18T04:12:20.296Z,12.03
2019-02-18T04:14:48.851Z,11.03
2019-02-18T04:17:18.176Z,11.27
2019-02-18T04:19:47.486Z,11.73
2019-02-18T04:22:16.816Z,12.77
2019-02-18T04:24:46.151Z,15.13
2019-02-18T04:27:15.473Z,15.47
2019-02-18T04:29:44.792Z,15.10
2019-02-18T04:32:14.121Z,15.03
2019-02-18T04:34:43.450Z,14.97
2019-02-18T04:37:11.973Z,13.73
2019-02-18T04:39:40.491Z,12.67
2019-02-18T04:42:09.815Z,14.20
2019-02-18T04:44:39.115Z,14.17
2019-02-18T04:47:08.419Z,14.53
2019-02-18T04:49:37.750Z,13.77
2019-02-18T04:52:07.203Z,15.67
2019-02-18T04:54:36.514Z,15.40
2019-02-18T04:57:05.037Z,15.80
2019-02-18T04:59:33.492Z,17.87
2019-02-18T05:02:02.874Z,21.03
2019-02-18T05:04:31.486Z,28.23
2019-02-18T05:07:00.794Z,39.27
2019-02-18T05:09:29.321Z,43.83
2019-02-18T05:11:58.629Z,46.33
2019-02-18T05:14:27.940Z,47.70
2019-02-18T05:16:57.283Z,42.20
2019-02-18T05:19:26.603Z,40.17
2019-02-18T05:21:55.111Z,37.10
2019-02-18T05:24:23.637Z,34.87
2019-02-18T05:26:52.990Z,30.17
2019-02-18T05:29:22.308Z,29.17
2019-02-18T05:31:51.642Z,28.07
2019-02-18T05:34:20.961Z,25.07
2019-02-18T05:36:50.282Z,26.17
2019-02-18T05:39:18.808Z,27.33
2019-02-18T05:41:48.131Z,38.87
2019-02-18T05:44:16.650Z,39.70
2019-02-18T05:46:45.963Z,35.30
2019-02-18T05:49:14.482Z,37.77
2019-02-18T05:51:43.796Z,35.77
2019-02-18T05:54:13.118Z,32.37
2019-02-18T05:56:42.431Z,31.80
2019-02-18T05:59:11.757Z,30.77
2019-02-18T06:01:41.072Z,30.50
2019-02-18T06:04:10.398Z,34.10
2019-02-18T06:06:38.933Z,34.97
2019-02-18T06:09:07.537Z,36.87
2019-02-18T06:14:38.206Z,35.20
2019-02-18T06:20:08.927Z,34.43
2019-02-18T06:22:38.629Z,34.37
2019-02-18T06:25:26.655Z,36.23
2019-02-18T06:27:55.991Z,37.00
2019-02-18T06:30:25.314Z,39.03
2019-02-18T06:32:54.657Z,38.20
2019-02-18T06:35:23.977Z,36.67
2019-02-18T06:37:53.304Z,37.80
2019-02-18T06:40:22.634Z,43.13
2019-02-18T06:42:51.952Z,42.30
2019-02-18T06:45:40.797Z,47.40
2019-02-18T06:48:28.786Z,48.70
2019-02-18T06:50:57.344Z,54.90
2019-02-18T06:53:26.665Z,55.10
2019-02-18T06:55:55.980Z,55.03
2019-02-18T06:58:32.543Z,51.80
2019-02-18T07:01:09.201Z,48.00
2019-02-18T07:03:43.279Z,38.23
2019-02-18T07:06:49.850Z,41.63
2019-02-18T07:09:37.869Z,56.03
2019-02-18T07:12:12.060Z,58.10
2019-02-18T07:14:40.664Z,55.90
2019-02-18T07:17:10.567Z,52.67
2019-02-18T07:19:59.214Z,52.97
2019-02-18T07:22:28.557Z,54.63
2019-02-18T07:24:57.875Z,54.50
2019-02-18T07:27:27.229Z,58.90
2019-02-18T07:29:56.579Z,60.20
2019-02-18T07:32:25.890Z,59.10
2019-02-18T07:34:55.197Z,53.30
2019-02-18T07:37:23.718Z,50.17
2019-02-18T07:40:01.036Z,61.33
2019-02-18T07:42:41.462Z,73.73
2019-02-18T07:47:53.505Z,54.77
2019-02-18T07:50:22.009Z,56.10
2019-02-18T07:52:51.319Z,34.43
2019-02-18T07:55:20.635Z,34.83
2019-02-18T07:57:49.974Z,31.97
2019-02-18T08:00:19.310Z,20.10
2019-02-18T08:02:47.968Z,28.43
2019-02-18T08:05:17.315Z,27.60
2019-02-18T08:07:45.838Z,24.83
2019-02-18T08:10:15.184Z,29.87
2019-02-18T08:12:43.702Z,23.80
2019-02-18T08:15:13.022Z,22.23
2019-02-18T08:17:42.427Z,23.90
2019-02-18T08:20:11.779Z,23.90
2019-02-18T08:22:41.114Z,22.73
2019-02-18T08:25:10.574Z,21.63
2019-02-18T08:27:39.224Z,26.77
2019-02-18T08:30:10.151Z,31.10
2019-02-18T08:32:38.710Z,29.37
2019-02-18T08:35:07.209Z,29.17
2019-02-18T08:37:35.771Z,28.90
2019-02-18T08:40:05.491Z,26.80
2019-02-18T08:42:34.835Z,28.83
2019-02-18T08:45:05.546Z,25.20
2019-02-18T08:47:34.270Z,12.47
2019-02-18T08:50:04.177Z,11.40
2019-02-18T08:52:32.711Z,11.03
2019-02-18T08:55:01.251Z,10.67
2019-02-18T08:57:30.550Z,10.23
2019-02-18T08:59:58.960Z,9.03
2019-02-18T09:02:28.318Z,8.83
2019-02-18T09:04:56.861Z,9.23
2019-02-18T09:07:25.374Z,9.70
2019-02-18T09:09:53.897Z,8.67
2019-02-18T09:12:23.250Z,8.60
2019-02-18T09:14:52.584Z,8.67
2019-02-18T09:17:21.924Z,9.67
2019-02-18T09:19:50.439Z,9.90
2019-02-18T09:22:38.456Z,8.93
2019-02-18T09:25:15.307Z,8.30
2019-02-18T09:27:44.632Z,9.27
2019-02-18T09:33:09.915Z,8.30
2019-02-18T09:35:39.250Z,8.43
2019-02-18T09:38:08.569Z,8.50
2019-02-18T09:40:44.691Z,8.43
2019-02-18T09:43:27.133Z,8.23
2019-02-18T09:45:56.472Z,7.17
2019-02-18T09:48:25.803Z,7.07
2019-02-18T09:50:55.155Z,8.63
2019-02-18T09:53:24.477Z,10.93
2019-02-18T09:55:52.924Z,9.17
2019-02-18T09:58:22.285Z,8.83
2019-02-18T10:00:50.832Z,10.90
2019-02-18T10:03:20.173Z,13.20
2019-02-18T10:05:49.510Z,9.73
2019-02-18T10:08:18.843Z,8.83
2019-02-18T10:10:55.376Z,17.33
2019-02-18T10:13:18.646Z,14.37
2019-02-18T10:15:47.976Z,10.27
2019-02-18T10:18:17.326Z,12.00
2019-02-18T10:20:46.657Z,10.10
2019-02-18T10:23:16.001Z,9.20
2019-02-18T10:25:44.661Z,9.20
2019-02-18T10:28:14.005Z,8.87
2019-02-18T10:30:42.573Z,10.57
2019-02-18T10:33:11.905Z,6.73
2019-02-18T10:35:41.347Z,7.87
2019-02-18T10:38:10.680Z,6.50
2019-02-18T10:40:40.028Z,9.03
2019-02-18T10:43:08.640Z,10.40
2019-02-18T10:45:37.108Z,9.50
2019-02-18T10:48:06.438Z,9.43
2019-02-18T10:50:35.951Z,8.70
2019-02-18T10:53:04.485Z,9.03
2019-02-18T10:55:33.828Z,11.40
2019-02-18T10:58:03.175Z,10.33
2019-02-18T11:00:32.590Z,10.10
2019-02-18T11:03:01.967Z,9.33
2019-02-18T11:05:31.294Z,8.17
2019-02-18T11:08:00.727Z,8.27
2019-02-18T11:10:30.061Z,13.57
2019-02-18T11:12:59.415Z,8.20
2019-02-18T11:15:28.146Z,7.23
2019-02-18T11:17:57.457Z,6.87
2019-02-18T11:20:25.990Z,6.17
2019-02-18T11:22:54.517Z,5.90
2019-02-18T11:25:23.037Z,7.17
2019-02-18T11:27:51.572Z,6.07
2019-02-18T11:30:20.410Z,7.47
2019-02-18T11:32:48.942Z,7.53
2019-02-18T11:35:17.402Z,7.53
2019-02-18T11:37:46.710Z,8.30
2019-02-18T11:40:16.037Z,6.70
2019-02-18T11:42:44.577Z,7.00
2019-02-18T11:45:14.036Z,7.33
2019-02-18T11:47:43.406Z,7.53
2019-02-18T11:50:12.993Z,8.00
2019-02-18T11:52:42.334Z,8.07
2019-02-18T11:55:11.736Z,7.27
2019-02-18T11:57:40.342Z,7.53
2019-02-18T12:00:10.388Z,6.50
2019-02-18T12:02:39.044Z,7.90
2019-02-18T12:05:09.174Z,8.73
2019-02-18T12:07:37.709Z,7.40
2019-02-18T12:10:08.023Z,8.13
2019-02-18T12:12:36.866Z,7.30
2019-02-18T12:15:07.678Z,8.10
2019-02-18T12:17:36.427Z,10.33
2019-02-18T12:20:07.844Z,8.97
2019-02-18T12:22:36.458Z,9.50
2019-02-18T12:25:06.034Z,9.23
2019-02-18T12:27:35.367Z,8.83
2019-02-18T12:30:05.826Z,9.33
2019-02-18T12:32:35.161Z,9.33
2019-02-18T12:35:04.882Z,9.27
2019-02-18T12:37:33.577Z,10.00
2019-02-18T12:40:02.116Z,6.00
2019-02-18T12:42:31.440Z,7.53
2019-02-18T12:45:00.876Z,8.00
2019-02-18T12:47:30.203Z,8.40
2019-02-18T12:49:59.533Z,7.30
2019-02-18T12:52:28.861Z,7.93
2019-02-18T12:55:00.364Z,7.27
2019-02-18T12:57:47.395Z,7.50
2019-02-18T13:00:17.001Z,7.13
2019-02-18T13:02:46.464Z,6.80
2019-02-18T13:05:15.404Z,6.37
2019-02-18T13:07:44.818Z,6.97
2019-02-18T13:10:13.386Z,7.20
2019-02-18T13:13:02.593Z,7.27
2019-02-18T13:15:31.930Z,6.63
2019-02-18T13:20:31.714Z,8.00
2019-02-18T13:23:01.046Z,8.30
2019-02-18T13:25:50.373Z,7.30
2019-02-18T13:28:19.678Z,8.33
2019-02-18T13:30:49.025Z,8.77
2019-02-18T13:33:18.351Z,9.30
2019-02-18T13:35:46.870Z,9.03
2019-02-18T13:38:15.591Z,8.27
2019-02-18T13:40:45.032Z,8.60
2019-02-18T13:43:14.391Z,8.30
2019-02-18T13:45:43.748Z,8.37
2019-02-18T13:48:13.122Z,7.80
2019-02-18T13:50:42.451Z,8.07
2019-02-18T13:53:11.785Z,7.07
2019-02-18T13:55:40.538Z,7.10
2019-02-18T13:58:09.987Z,7.13
2019-02-18T14:00:38.513Z,7.77
2019-02-18T14:03:07.997Z,7.73
2019-02-18T14:05:37.325Z,7.50
2019-02-18T14:08:06.737Z,6.27
2019-02-18T14:10:36.060Z,7.23
2019-02-18T14:13:05.525Z,6.83
2019-02-18T14:15:34.943Z,6.70
2019-02-18T14:18:04.296Z,7.33
2019-02-18T14:20:32.801Z,6.47
2019-02-18T14:23:02.136Z,7.30
2019-02-18T14:25:31.446Z,7.00
2019-02-18T14:28:00.763Z,7.10
2019-02-18T14:30:29.597Z,6.87
2019-02-18T14:32:58.935Z,7.07
2019-02-18T14:35:28.271Z,7.20
2019-02-18T14:37:57.594Z,8.10
2019-02-18T14:40:27.322Z,7.60
2019-02-18T14:42:56.666Z,7.77
2019-02-18T14:45:26.115Z,8.07
2019-02-18T14:47:55.426Z,8.03
2019-02-18T14:50:24.949Z,8.17
2019-02-18T14:52:54.397Z,7.73
2019-02-18T14:55:23.806Z,12.67
2019-02-18T14:57:52.534Z,10.80
2019-02-18T15:00:22.925Z,8.67
2019-02-18T15:02:53.152Z,9.57
2019-02-18T15:05:42.859Z,8.80
2019-02-18T15:08:12.202Z,13.17
2019-02-18T15:10:41.535Z,11.57
2019-02-18T15:13:10.898Z,10.10
2019-02-18T15:15:39.710Z,11.13
2019-02-18T15:18:09.021Z,9.53
2019-02-18T15:20:38.017Z,10.20
2019-02-18T15:23:07.370Z,10.17
2019-02-18T15:25:36.695Z,11.23
2019-02-18T15:28:06.121Z,11.27
2019-02-18T15:30:35.495Z,11.80
2019-02-18T15:33:04.039Z,17.70
2019-02-18T15:35:33.457Z,16.10
2019-02-18T15:38:02.073Z,16.17
2019-02-18T15:40:31.394Z,15.47
2019-02-18T15:43:00.728Z,17.83
2019-02-18T15:45:30.070Z,19.93
2019-02-18T15:48:01.770Z,21.23
2019-02-18T15:50:48.640Z,21.47
2019-02-18T15:53:17.309Z,23.03
2019-02-18T15:55:46.695Z,21.43
2019-02-18T15:58:36.041Z,21.60
2019-02-18T16:04:07.377Z,28.87
2019-02-18T16:06:38.661Z,32.47
2019-02-18T16:09:08.177Z,31.60
2019-02-18T16:11:36.815Z,34.87
2019-02-18T16:14:06.137Z,35.27
2019-02-18T16:16:55.390Z,35.33
2019-02-18T16:19:24.741Z,38.77
2019-02-18T16:21:54.070Z,39.33
2019-02-18T16:24:23.378Z,40.83
2019-02-18T16:26:52.696Z,41.70
2019-02-18T16:29:22.065Z,44.00
2019-02-18T16:31:51.405Z,45.60
2019-02-18T16:34:19.989Z,50.57
2019-02-18T16:36:49.340Z,46.47
2019-02-18T16:39:17.905Z,48.93
2019-02-18T16:41:47.246Z,48.27
2019-02-18T16:44:16.561Z,46.03
2019-02-18T16:46:45.888Z,46.53
2019-02-18T16:49:35.282Z,48.23
2019-02-18T16:52:04.094Z,59.90
2019-02-18T16:54:33.425Z,69.63
2019-02-18T16:57:02.763Z,71.70
2019-02-18T16:59:32.093Z,81.53
2019-02-18T17:02:00.506Z,80.17
2019-02-18T17:04:29.836Z,97.83
2019-02-18T17:06:59.161Z,110.17
2019-02-18T17:09:28.507Z,102.73
2019-02-18T17:11:57.038Z,99.80
2019-02-18T17:14:26.373Z,99.93
2019-02-18T17:16:55.725Z,106.53
2019-02-18T17:19:25.146Z,111.40
2019-02-18T17:21:54.483Z,125.77
2019-02-18T17:24:43.723Z,129.43
2019-02-18T17:27:13.068Z,135.07
2019-02-18T17:29:42.413Z,129.47
2019-02-18T17:32:10.952Z,121.10
2019-02-18T17:34:39.790Z,122.77
2019-02-18T17:37:09.117Z,124.20
2019-02-18T17:39:38.456Z,125.67
2019-02-18T17:42:07.800Z,119.90
2019-02-18T17:44:37.143Z,105.33
2019-02-18T17:47:06.469Z,100.20
2019-02-18T17:49:55.703Z,98.63
2019-02-18T17:52:25.158Z,91.07
2019-02-18T17:54:54.490Z,89.97
2019-02-18T17:57:23.178Z,92.43
2019-02-18T17:59:52.519Z,94.57
2019-02-18T18:02:21.930Z,92.70
2019-02-18T18:04:51.361Z,89.60
2019-02-18T18:07:20.832Z,87.60
2019-02-18T18:09:50.176Z,85.33
2019-02-18T18:12:19.575Z,84.43
2019-02-18T18:14:48.923Z,84.10
2019-02-18T18:17:17.456Z,84.53
2019-02-18T18:19:46.780Z,84.23
2019-02-18T18:22:15.907Z,82.33
2019-02-18T18:24:45.241Z,80.63
2019-02-18T18:27:14.562Z,79.90
2019-02-18T18:29:43.919Z,74.77
2019-02-18T18:32:13.253Z,68.43
2019-02-18T18:34:42.608Z,67.20
2019-02-18T18:37:11.930Z,67.60
2019-02-18T18:39:41.253Z,65.80
2019-02-18T18:42:10.629Z,70.07
2019-02-18T18:44:39.961Z,60.47
2019-02-18T18:47:09.344Z,60.37
2019-02-18T18:49:38.674Z,51.87
2019-02-18T18:52:07.206Z,47.90
2019-02-18T18:54:35.640Z,50.83
2019-02-18T18:57:04.993Z,53.60
2019-02-18T18:59:54.226Z,55.90
2019-02-18T19:02:23.560Z,60.53
2019-02-18T19:04:53.915Z,58.10
2019-02-18T19:07:23.456Z,56.63
2019-02-18T19:13:15.789Z,53.33
2019-02-18T19:15:49.634Z,51.33
2019-02-18T19:18:34.431Z,48.10
2019-02-18T19:21:03.778Z,45.63
2019-02-18T19:23:33.815Z,45.67
2019-02-18T19:26:02.413Z,47.67
2019-02-18T19:28:32.418Z,50.90
2019-02-18T19:31:01.329Z,52.23
2019-02-18T19:33:30.057Z,51.43
2019-02-18T19:35:59.388Z,50.90
2019-02-18T19:38:28.708Z,49.27
2019-02-18T19:40:58.110Z,47.40
2019-02-18T19:43:27.460Z,49.90
2019-02-18T19:45:56.783Z,50.37
2019-02-18T19:48:26.119Z,52.67
2019-02-18T19:50:55.451Z,52.27
2019-02-18T19:53:44.679Z,51.40
2019-02-18T19:56:13.996Z,54.40
2019-02-18T19:58:42.521Z,56.87
2019-02-18T20:01:11.049Z,62.10
2019-02-18T20:03:39.873Z,60.37
2019-02-18T20:06:09.202Z,60.50
2019-02-18T20:08:38.528Z,59.13
2019-02-18T20:11:19.795Z,58.53
2019-02-18T20:13:48.418Z,53.97
2019-02-18T20:16:37.663Z,52.47
2019-02-18T20:19:06.994Z,54.00
2019-02-18T20:21:36.340Z,54.60
2019-02-18T20:24:05.697Z,56.43
2019-02-18T20:26:35.335Z,60.30
2019-02-18T20:29:04.692Z,56.50
2019-02-18T20:31:33.230Z,54.27
2019-02-18T20:34:02.557Z,58.70
2019-02-18T20:36:31.941Z,55.30
2019-02-18T20:39:01.279Z,54.77
2019-02-18T20:41:30.939Z,55.63
2019-02-18T20:44:07.354Z,53.43
2019-02-18T20:46:49.494Z,55.10
2019-02-18T20:49:18.827Z,57.93
2019-02-18T20:52:08.143Z,58.83
2019-02-18T20:54:36.770Z,60.43
2019-02-18T20:57:05.398Z,63.50
2019-02-18T20:59:33.910Z,62.93
2019-02-18T21:02:03.239Z,67.40
2019-02-18T21:04:32.576Z,66.70
2019-02-18T21:07:01.898Z,67.23
2019-02-18T21:09:31.206Z,66.97
2019-02-18T21:12:00.854Z,69.50
2019-02-18T21:14:30.183Z,74.83
2019-02-18T21:16:59.539Z,70.77
2019-02-18T21:19:28.353Z,66.77
2019-02-18T21:21:57.678Z,62.47
2019-02-18T21:24:26.986Z,59.53
2019-02-18T21:26:55.517Z,60.70
2019-02-18T21:29:24.836Z,59.53
2019-02-18T21:31:54.158Z,60.63
2019-02-18T21:34:23.494Z,55.53
2019-02-18T21:36:52.809Z,56.27
2019-02-18T21:39:22.150Z,55.73
2019-02-18T21:41:51.466Z,54.17
2019-02-18T21:44:25.451Z,56.33
2019-02-18T21:47:10.007Z,56.63
2019-02-18T21:49:38.557Z,60.60
2019-02-18T21:52:07.040Z,60.63
2019-02-18T21:54:36.354Z,57.73
2019-02-18T21:57:05.678Z,57.27
2019-02-18T21:59:54.885Z,53.27
2019-02-18T22:02:24.209Z,50.67
2019-02-18T22:04:53.551Z,51.77
2019-02-18T22:07:22.067Z,50.93
2019-02-18T22:09:51.098Z,51.07
2019-02-18T22:12:19.745Z,50.40
2019-02-18T22:14:48.274Z,51.43
2019-02-18T22:17:17.589Z,53.07
2019-02-18T22:19:46.901Z,54.93
2019-02-18T22:22:16.245Z,52.77
2019-02-18T22:24:45.563Z,54.77
2019-02-18T22:27:15.090Z,55.40
2019-02-18T22:29:44.394Z,54.93
2019-02-18T22:32:13.721Z,49.60
2019-02-18T22:34:43.042Z,42.97
2019-02-18T22:37:12.352Z,42.63
2019-02-18T22:39:40.792Z,40.23
2019-02-18T22:42:29.990Z,34.97
2019-02-18T22:44:59.319Z,31.77
2019-02-18T22:47:28.704Z,33.03
2019-02-18T22:49:58.005Z,32.53
2019-02-18T22:52:27.314Z,32.27
2019-02-18T22:54:56.667Z,36.63
2019-02-18T22:57:25.970Z,36.87
2019-02-18T22:59:54.482Z,37.20
2019-02-18T23:02:23.057Z,35.27
2019-02-18T23:04:52.384Z,33.93
2019-02-18T23:07:21.817Z,34.60
2019-02-18T23:10:11.028Z,31.50
2019-02-18T23:12:40.350Z,29.80
2019-02-18T23:15:09.681Z,29.97
2019-02-18T23:17:39.148Z,28.93
2019-02-18T23:20:08.625Z,27.87
2019-02-18T23:22:37.446Z,27.77
2019-02-18T23:25:05.864Z,25.77
2019-02-18T23:27:34.397Z,25.30
2019-02-18T23:33:06.047Z,24.33
2019-02-18T23:35:34.578Z,22.93
2019-02-18T23:38:04.073Z,23.30
2019-02-18T23:40:33.494Z,21.67
2019-02-18T23:43:02.840Z,22.50
2019-02-18T23:45:32.151Z,20.80
2019-02-18T23:48:01.464Z,20.87
2019-02-18T23:50:30.798Z,19.50
2019-02-18T23:53:00.113Z,19.57
2019-02-18T23:55:28.726Z,20.33
2019-02-18T23:57:58.047Z,20.57
